Time;durP1;ratioP1;P1;durP2;ratioP2;P2;SDS_P1;SDS_P2;PMS_P1;PMS_P2;Temp;Humidity;BMP_temperature;BMP_pressure;BME280_temperature;BME280_humidity;BME280_pressure;Samples;Min_cycle;Max_cycle;Signal;HPM_P1;HPM_P2
2021/06/16 00:00:12;;;;;;;;;21.25;19.00;;;;;;;;4957974;28;45641;-90
2021/06/16 00:02:37;;;;;;;;;20.50;18.00;;;;;;;;4969952;28;47272;-90
2021/06/16 00:05:04;;;;;;;;;19.75;18.00;;;;;;;;4953808;28;45511;-90
2021/06/16 00:07:29;;;;;;;;;21.50;19.25;;;;;;;;4957176;28;45352;-89
2021/06/16 00:09:54;;;;;;;;;25.67;25.33;;;;;;;;4975606;28;45639;-90
2021/06/16 00:12:21;;;;;;;;;30.67;28.33;;;;;;;;4974688;28;46019;-90
2021/06/16 00:14:46;;;;;;;;;26.50;23.25;;;;;;;;4972092;28;45510;-90
2021/06/16 00:17:11;;;;;;;;;27.00;23.25;;;;;;;;4976040;28;45547;-90
2021/06/16 00:19:36;;;;;;;;;26.33;23.33;;;;;;;;4951733;28;45530;-89
2021/06/16 00:22:02;;;;;;;;;23.50;22.25;;;;;;;;4954216;28;48284;-89
2021/06/16 00:24:27;;;;;;;;;24.00;21.50;;;;;;;;4975443;28;46499;-90
2021/06/16 00:26:52;;;;;;;;;20.00;20.00;;;;;;;;4974182;28;45506;-90
2021/06/16 00:29:18;;;;;;;;;25.25;22.50;;;;;;;;4955581;28;45376;-90
2021/06/16 00:31:43;;;;;;;;;21.75;21.50;;;;;;;;4955210;28;47040;-90
2021/06/16 00:34:09;;;;;;;;;19.25;18.50;;;;;;;;4956639;28;46085;-90
2021/06/16 00:36:34;;;;;;;;;24.75;22.25;;;;;;;;4956163;28;45521;-90
2021/06/16 00:38:59;;;;;;;;;21.25;21.00;;;;;;;;4956285;28;45780;-90
2021/06/16 00:41:25;;;;;;;;;25.75;21.25;;;;;;;;4957912;28;47567;-90
2021/06/16 00:43:51;;;;;;;;;25.50;22.00;;;;;;;;4957957;28;45702;-90
2021/06/16 00:46:16;;;;;;;;;19.33;18.33;;;;;;;;4967076;28;45478;-90
2021/06/16 00:48:42;;;;;;;;;20.75;20.25;;;;;;;;4972255;28;45446;-90
2021/06/16 00:51:07;;;;;;;;;19.50;19.50;;;;;;;;4970706;28;50797;-90
2021/06/16 00:53:32;;;;;;;;;19.50;19.50;;;;;;;;4973451;28;45695;-90
2021/06/16 00:55:57;;;;;;;;;21.33;18.67;;;;;;;;4973266;28;45518;-91
2021/06/16 00:58:23;;;;;;;;;22.00;21.00;;;;;;;;4956945;28;45544;-90
2021/06/16 01:00:55;;;;;;;;;21.75;20.25;;;;;;;;4971813;28;47242;-90
2021/06/16 01:03:25;;;;;;;;;21.00;21.00;;;;;;;;4972800;28;46568;-90
2021/06/16 01:06:10;;;;;;;;;24.00;20.75;;;;;;;;4954583;28;45655;-90
2021/06/16 01:08:39;;;;;;;;;24.75;22.00;;;;;;;;4945108;28;45859;-91
2021/06/16 01:11:06;;;;;;;;;20.25;19.25;;;;;;;;4974149;28;46169;-90
2021/06/16 01:13:43;;;;;;;;;21.00;20.75;;;;;;;;4974649;28;45625;-90
2021/06/16 01:16:31;;;;;;;;;23.00;19.75;;;;;;;;4951982;28;45781;-91
2021/06/16 01:18:59;;;;;;;;;21.25;20.75;;;;;;;;4960328;28;45521;-90
2021/06/16 01:21:26;;;;;;;;;24.00;21.75;;;;;;;;4974218;28;46545;-89
2021/06/16 01:23:59;;;;;;;;;23.00;21.00;;;;;;;;4974582;28;45738;-90
2021/06/16 01:26:26;;;;;;;;;21.00;20.00;;;;;;;;4972720;28;45695;-90
2021/06/16 01:28:57;;;;;;;;;22.75;21.50;;;;;;;;4974001;28;45438;-90
2021/06/16 01:31:23;;;;;;;;;20.00;18.75;;;;;;;;4971043;28;45588;-89
2021/06/16 01:33:49;;;;;;;;;21.00;20.75;;;;;;;;4954828;28;45571;-89
2021/06/16 01:36:14;;;;;;;;;19.50;17.25;;;;;;;;4975084;28;45268;-90
2021/06/16 01:38:41;;;;;;;;;24.00;21.25;;;;;;;;4973678;28;46036;-90
2021/06/16 01:41:06;;;;;;;;;24.75;21.50;;;;;;;;4956468;28;47026;-90
2021/06/16 01:43:32;;;;;;;;;22.25;20.00;;;;;;;;4972053;28;45328;-90
2021/06/16 01:45:59;;;;;;;;;22.25;20.25;;;;;;;;4973912;28;45593;-90
2021/06/16 01:48:25;;;;;;;;;19.00;18.00;;;;;;;;4973947;28;45501;-90
2021/06/16 01:50:52;;;;;;;;;22.75;19.50;;;;;;;;4978298;28;47226;-90
2021/06/16 01:53:18;;;;;;;;;24.00;19.00;;;;;;;;4972090;28;45363;-90
2021/06/16 01:55:45;;;;;;;;;21.00;21.00;;;;;;;;4970655;28;45427;-91
2021/06/16 01:58:11;;;;;;;;;24.00;21.00;;;;;;;;4957003;28;45582;-90
2021/06/16 02:00:38;;;;;;;;;25.50;22.50;;;;;;;;4956196;28;46773;-90
2021/06/16 02:03:04;;;;;;;;;26.50;20.75;;;;;;;;4955029;28;46368;-91
2021/06/16 02:05:30;;;;;;;;;23.25;20.50;;;;;;;;4946428;28;45503;-91
2021/06/16 02:08:01;;;;;;;;;21.50;21.00;;;;;;;;4955705;28;51038;-90
2021/06/16 02:10:35;;;;;;;;;24.00;20.50;;;;;;;;4959747;28;46775;-91
2021/06/16 02:13:01;;;;;;;;;21.75;20.75;;;;;;;;4955489;28;46267;-91
2021/06/16 02:15:36;;;;;;;;;21.00;20.75;;;;;;;;4973412;28;45388;-90
2021/06/16 02:18:02;;;;;;;;;23.75;22.00;;;;;;;;4954843;28;45482;-90
2021/06/16 02:20:28;;;;;;;;;24.50;21.50;;;;;;;;4973071;28;46373;-91
2021/06/16 02:22:53;;;;;;;;;24.25;21.50;;;;;;;;4978675;23;44803;-79
2021/06/16 02:25:19;;;;;;;;;21.33;21.00;;;;;;;;4944617;28;45996;-78
2021/06/16 02:27:44;;;;;;;;;23.50;21.00;;;;;;;;4960424;28;45677;-78
2021/06/16 02:30:10;;;;;;;;;23.00;21.00;;;;;;;;4966775;28;45656;-78
2021/06/16 02:32:36;;;;;;;;;26.50;21.50;;;;;;;;4943664;28;45601;-78
2021/06/16 02:35:03;;;;;;;;;26.00;22.50;;;;;;;;4961718;28;45504;-78
2021/06/16 02:37:29;;;;;;;;;24.00;21.50;;;;;;;;4963310;28;45769;-79
2021/06/16 02:40:01;;;;;;;;;22.25;21.75;;;;;;;;4959187;28;46025;-78
2021/06/16 02:42:26;;;;;;;;;24.25;21.50;;;;;;;;4966667;28;45327;-78
2021/06/16 02:44:52;;;;;;;;;24.75;20.00;;;;;;;;4961647;28;45596;-78
2021/06/16 02:47:18;;;;;;;;;27.25;23.50;;;;;;;;4959971;28;45605;-78
2021/06/16 02:49:50;;;;;;;;;23.75;21.00;;;;;;;;4968303;28;46177;-79
2021/06/16 02:52:17;;;;;;;;;19.50;19.50;;;;;;;;4959982;28;45619;-78
2021/06/16 02:54:44;;;;;;;;;22.75;21.25;;;;;;;;4959311;28;45878;-79
2021/06/16 02:57:11;;;;;;;;;24.75;22.50;;;;;;;;4962748;28;45585;-80
2021/06/16 02:59:36;;;;;;;;;23.50;23.00;;;;;;;;4958301;28;45646;-80
2021/06/16 03:02:02;;;;;;;;;24.75;23.75;;;;;;;;4957448;28;53430;-80
2021/06/16 03:04:28;;;;;;;;;21.00;21.00;;;;;;;;4946858;28;45608;-79
2021/06/16 03:06:53;;;;;;;;;25.75;25.75;;;;;;;;4960810;28;46271;-80
2021/06/16 03:09:19;;;;;;;;;22.50;21.00;;;;;;;;4964528;28;45546;-80
2021/06/16 03:11:45;;;;;;;;;27.00;24.75;;;;;;;;4959658;28;45595;-79
2021/06/16 03:14:11;;;;;;;;;24.00;20.50;;;;;;;;4956358;28;46158;-80
2021/06/16 03:16:36;;;;;;;;;26.00;22.50;;;;;;;;4964674;28;45572;-79
2021/06/16 03:19:02;;;;;;;;;24.25;21.75;;;;;;;;4959365;28;46058;-79
2021/06/16 03:21:28;;;;;;;;;27.25;23.00;;;;;;;;4964992;28;45469;-80
2021/06/16 03:23:54;;;;;;;;;23.00;23.00;;;;;;;;4960311;28;45935;-79
2021/06/16 03:26:19;;;;;;;;;25.25;23.25;;;;;;;;4962041;28;45568;-80
2021/06/16 03:28:46;;;;;;;;;23.50;20.50;;;;;;;;4967188;28;46228;-80
2021/06/16 03:31:13;;;;;;;;;23.00;23.00;;;;;;;;5052100;23;45898;-89
2021/06/16 03:33:40;;;;;;;;;25.75;24.00;;;;;;;;4970850;28;45607;-90
2021/06/16 03:36:05;;;;;;;;;25.75;23.75;;;;;;;;4971639;28;52393;-90
2021/06/16 03:38:31;;;;;;;;;29.50;23.25;;;;;;;;4968600;28;47987;-89
2021/06/16 03:40:56;;;;;;;;;22.50;20.00;;;;;;;;4971548;28;45638;-90
2021/06/16 03:43:23;;;;;;;;;26.75;22.50;;;;;;;;4970871;28;45617;-90
2021/06/16 03:45:49;;;;;;;;;28.25;23.75;;;;;;;;4969689;28;45553;-90
2021/06/16 03:48:17;;;;;;;;;27.50;26.25;;;;;;;;4966358;28;46199;-89
2021/06/16 03:50:43;;;;;;;;;27.75;24.50;;;;;;;;4969118;28;45245;-89
2021/06/16 03:53:10;;;;;;;;;28.50;25.00;;;;;;;;4970853;28;45727;-90
2021/06/16 03:55:35;;;;;;;;;26.75;24.75;;;;;;;;4984051;28;45631;-89
2021/06/16 03:58:02;;;;;;;;;27.75;25.75;;;;;;;;4966098;28;50420;-89
2021/06/16 04:00:27;;;;;;;;;29.75;24.50;;;;;;;;4963885;28;45734;-90
2021/06/16 04:02:52;;;;;;;;;27.67;25.00;;;;;;;;4970232;28;45395;-90
2021/06/16 04:05:18;;;;;;;;;25.75;24.75;;;;;;;;4968690;28;45598;-90
2021/06/16 04:07:47;;;;;;;;;27.00;24.75;;;;;;;;4968674;28;48254;-89
2021/06/16 04:10:13;;;;;;;;;30.25;25.25;;;;;;;;4960694;28;45868;-91
2021/06/16 04:12:38;;;;;;;;;23.00;21.50;;;;;;;;4967016;28;45446;-91
2021/06/16 04:15:05;;;;;;;;;23.25;22.75;;;;;;;;4972690;28;45461;-90
2021/06/16 04:17:30;;;;;;;;;27.75;25.25;;;;;;;;4969522;28;46924;-90
2021/06/16 04:19:56;;;;;;;;;26.00;23.00;;;;;;;;4969565;28;45599;-89
2021/06/16 04:22:22;;;;;;;;;26.25;23.75;;;;;;;;4967054;28;47007;-90
2021/06/16 04:24:47;;;;;;;;;25.25;23.50;;;;;;;;4966231;28;46071;-91
2021/06/16 04:27:12;;;;;;;;;26.67;22.67;;;;;;;;4970275;28;46398;-89
2021/06/16 04:29:40;;;;;;;;;21.75;21.50;;;;;;;;4967914;28;45506;-89
2021/06/16 04:32:06;;;;;;;;;27.00;25.25;;;;;;;;4967982;28;45444;-90
2021/06/16 04:34:31;;;;;;;;;27.50;23.25;;;;;;;;4965869;28;46249;-89
2021/06/16 04:36:57;;;;;;;;;29.75;25.00;;;;;;;;4968314;28;46792;-90
2021/06/16 04:39:22;;;;;;;;;30.75;26.50;;;;;;;;4971355;28;45509;-90
2021/06/16 04:41:48;;;;;;;;;25.33;23.33;;;;;;;;4970559;28;45470;-89
2021/06/16 04:44:13;;;;;;;;;28.00;23.33;;;;;;;;4968433;28;45532;-90
2021/06/16 04:46:38;;;;;;;;;22.50;22.50;;;;;;;;4970734;28;46347;-90
2021/06/16 04:49:04;;;;;;;;;26.75;25.50;;;;;;;;4967536;28;47791;-90
2021/06/16 04:51:29;;;;;;;;;24.50;21.50;;;;;;;;4972281;28;45681;-89
2021/06/16 04:53:54;;;;;;;;;26.50;26.25;;;;;;;;4964020;28;45613;-89
2021/06/16 04:56:20;;;;;;;;;26.00;22.75;;;;;;;;4968414;28;47424;-90
2021/06/16 04:58:45;;;;;;;;;28.50;27.25;;;;;;;;4971237;28;45561;-88
2021/06/16 05:01:10;;;;;;;;;27.00;24.50;;;;;;;;4968518;28;45707;-90
2021/06/16 05:03:36;;;;;;;;;30.00;27.25;;;;;;;;4969427;28;45698;-90
2021/06/16 05:06:01;;;;;;;;;27.50;26.75;;;;;;;;4971068;28;45552;-90
2021/06/16 05:08:26;;;;;;;;;27.50;25.50;;;;;;;;4972148;28;45946;-90
2021/06/16 05:10:51;;;;;;;;;28.33;26.33;;;;;;;;4968092;28;45525;-90
2021/06/16 05:13:21;;;;;;;;;28.33;23.67;;;;;;;;4968768;28;45411;-90
2021/06/16 05:15:46;;;;;;;;;26.00;22.00;;;;;;;;4969520;28;46412;-90
2021/06/16 05:18:11;;;;;;;;;23.75;22.75;;;;;;;;4971329;28;45414;-90
2021/06/16 05:20:36;;;;;;;;;25.00;23.33;;;;;;;;4969331;28;45549;-90
2021/06/16 05:23:03;;;;;;;;;26.50;24.25;;;;;;;;4972008;28;45292;-89
2021/06/16 05:25:28;;;;;;;;;26.25;23.25;;;;;;;;4965626;28;46641;-89
2021/06/16 05:27:53;;;;;;;;;31.75;24.75;;;;;;;;4967486;28;45375;-89
2021/06/16 05:30:20;;;;;;;;;24.00;23.67;;;;;;;;4969960;28;45536;-89
2021/06/16 05:32:45;;;;;;;;;25.75;23.75;;;;;;;;4967204;28;45773;-90
2021/06/16 05:35:10;;;;;;;;;27.67;26.00;;;;;;;;4964697;28;47453;-89
2021/06/16 05:37:36;;;;;;;;;32.00;28.00;;;;;;;;4970943;28;45476;-89
2021/06/16 05:40:02;;;;;;;;;27.50;25.50;;;;;;;;4966982;28;45536;-89
2021/06/16 05:42:27;;;;;;;;;26.00;25.50;;;;;;;;4968902;28;47012;-90
2021/06/16 05:44:53;;;;;;;;;33.33;27.33;;;;;;;;4967135;28;45919;-90
2021/06/16 05:47:18;;;;;;;;;25.00;25.00;;;;;;;;4965292;28;45666;-90
2021/06/16 05:49:43;;;;;;;;;26.67;24.00;;;;;;;;4969616;28;45343;-90
2021/06/16 05:52:08;;;;;;;;;28.00;23.75;;;;;;;;4969807;28;45720;-91
2021/06/16 05:54:36;;;;;;;;;33.00;27.50;;;;;;;;4967660;28;46109;-90
2021/06/16 05:57:01;;;;;;;;;26.50;24.75;;;;;;;;4970493;28;45356;-89
2021/06/16 05:59:26;;;;;;;;;26.75;24.25;;;;;;;;4974247;28;45641;-91
2021/06/16 06:01:51;;;;;;;;;32.00;26.75;;;;;;;;4970229;28;45398;-90
2021/06/16 06:04:17;;;;;;;;;29.00;24.67;;;;;;;;4967493;28;46323;-89
2021/06/16 06:06:42;;;;;;;;;35.67;30.00;;;;;;;;4967619;28;45331;-91
2021/06/16 06:09:08;;;;;;;;;24.75;24.00;;;;;;;;4969830;28;45564;-91
2021/06/16 06:11:34;;;;;;;;;27.50;23.75;;;;;;;;4968168;28;45937;-91
2021/06/16 06:14:00;;;;;;;;;27.50;24.25;;;;;;;;4970241;28;47261;-90
2021/06/16 06:16:25;;;;;;;;;28.75;25.00;;;;;;;;4969314;28;45619;-90
2021/06/16 06:18:50;;;;;;;;;29.00;23.67;;;;;;;;4969647;28;45579;-90
2021/06/16 06:21:16;;;;;;;;;27.50;24.50;;;;;;;;4970984;28;45379;-91
2021/06/16 06:23:41;;;;;;;;;23.00;21.00;;;;;;;;4967006;28;47108;-91
2021/06/16 06:26:06;;;;;;;;;22.33;19.67;;;;;;;;4962342;28;45509;-90
2021/06/16 06:28:31;;;;;;;;;20.00;20.00;;;;;;;;4966810;28;45806;-90
2021/06/16 06:30:57;;;;;;;;;18.00;16.33;;;;;;;;4963280;28;45504;-90
2021/06/16 06:33:22;;;;;;;;;19.50;17.50;;;;;;;;4969927;28;47219;-90
2021/06/16 06:35:47;;;;;;;;;20.00;18.00;;;;;;;;4965868;28;45592;-90
2021/06/16 06:38:13;;;;;;;;;21.00;18.33;;;;;;;;4965327;28;45383;-89
2021/06/16 06:40:39;;;;;;;;;17.25;16.25;;;;;;;;4970599;28;45748;-90
2021/06/16 06:43:04;;;;;;;;;16.50;16.50;;;;;;;;4969080;28;46554;-90
2021/06/16 06:45:29;;;;;;;;;18.33;15.33;;;;;;;;4969721;28;45377;-90
2021/06/16 06:47:55;;;;;;;;;18.25;15.25;;;;;;;;4969313;28;45530;-91
2021/06/16 06:50:20;;;;;;;;;16.33;14.33;;;;;;;;4966381;28;45814;-91
2021/06/16 06:52:47;;;;;;;;;20.33;17.67;;;;;;;;4962455;28;47276;-90
2021/06/16 06:55:12;;;;;;;;;18.00;17.50;;;;;;;;4961845;28;45514;-90
2021/06/16 06:57:38;;;;;;;;;15.00;15.00;;;;;;;;4965442;28;45296;-91
2021/06/16 07:00:04;;;;;;;;;21.75;17.00;;;;;;;;4963774;28;45488;-90
2021/06/16 07:02:29;;;;;;;;;19.25;17.75;;;;;;;;4966161;28;47558;-90
2021/06/16 07:04:55;;;;;;;;;17.33;16.33;;;;;;;;4969503;28;45384;-89
2021/06/16 07:07:20;;;;;;;;;17.33;16.33;;;;;;;;4966219;28;45430;-91
2021/06/16 07:09:46;;;;;;;;;14.67;14.67;;;;;;;;4965437;28;45554;-90
2021/06/16 07:12:12;;;;;;;;;20.25;17.25;;;;;;;;4968635;28;46739;-90
2021/06/16 07:14:38;;;;;;;;;15.00;14.25;;;;;;;;4964466;28;45461;-90
2021/06/16 07:17:03;;;;;;;;;16.75;16.75;;;;;;;;4970203;28;45435;-89
2021/06/16 07:19:28;;;;;;;;;17.50;16.50;;;;;;;;4965320;28;45727;-89
2021/06/16 07:21:53;;;;;;;;;17.33;15.33;;;;;;;;4967698;28;47182;-90
2021/06/16 07:24:18;;;;;;;;;17.33;15.33;;;;;;;;4969939;28;45448;-89
2021/06/16 07:26:44;;;;;;;;;17.00;15.50;;;;;;;;4967036;28;45566;-90
2021/06/16 07:29:09;;;;;;;;;14.33;14.33;;;;;;;;4965532;28;45590;-90
2021/06/16 07:31:34;;;;;;;;;16.50;13.75;;;;;;;;4969647;28;46816;-89
2021/06/16 07:33:59;;;;;;;;;14.00;14.00;;;;;;;;4966550;28;45614;-90
2021/06/16 07:36:25;;;;;;;;;18.00;14.50;;;;;;;;4970628;28;45627;-90
2021/06/16 07:38:50;;;;;;;;;12.33;11.67;;;;;;;;4961897;28;45540;-90
2021/06/16 07:41:15;;;;;;;;;15.50;12.75;;;;;;;;4965082;28;48336;-90
2021/06/16 07:43:40;;;;;;;;;14.50;13.00;;;;;;;;4969394;28;45564;-88
2021/06/16 07:46:06;;;;;;;;;13.00;13.00;;;;;;;;4967682;28;45555;-90
2021/06/16 07:48:31;;;;;;;;;15.33;14.00;;;;;;;;4964948;28;45505;-89
2021/06/16 07:50:56;;;;;;;;;13.00;13.00;;;;;;;;4967212;28;45498;-90
2021/06/16 07:53:22;;;;;;;;;13.67;12.67;;;;;;;;4965524;28;45477;-89
2021/06/16 07:55:48;;;;;;;;;17.00;12.50;;;;;;;;4966163;28;45777;-89
2021/06/16 07:58:13;;;;;;;;;16.50;14.25;;;;;;;;4965633;28;45372;-89
2021/06/16 08:00:38;;;;;;;;;17.50;14.50;;;;;;;;4967536;28;46044;-90
2021/06/16 08:03:03;;;;;;;;;15.50;13.00;;;;;;;;4967067;28;45474;-90
2021/06/16 08:05:29;;;;;;;;;14.75;11.25;;;;;;;;4963581;28;45722;-89
2021/06/16 08:07:54;;;;;;;;;16.25;14.75;;;;;;;;4968571;28;45230;-89
2021/06/16 08:10:19;;;;;;;;;16.00;12.67;;;;;;;;4977637;28;47248;-89
2021/06/16 08:12:45;;;;;;;;;15.00;14.00;;;;;;;;4969506;28;45423;-89
2021/06/16 08:15:11;;;;;;;;;14.50;12.00;;;;;;;;4971002;28;45519;-90
2021/06/16 08:17:36;;;;;;;;;12.75;12.50;;;;;;;;4969570;28;45494;-89
2021/06/16 08:20:03;;;;;;;;;16.25;14.00;;;;;;;;4969290;28;47181;-89
2021/06/16 08:22:28;;;;;;;;;11.50;10.50;;;;;;;;4971828;28;45537;-90
2021/06/16 08:24:55;;;;;;;;;15.00;12.67;;;;;;;;4970789;28;45478;-88
2021/06/16 08:27:21;;;;;;;;;13.75;12.00;;;;;;;;4973827;28;45922;-88
2021/06/16 08:29:46;;;;;;;;;18.67;11.33;;;;;;;;4972223;28;46879;-88
2021/06/16 08:32:11;;;;;;;;;13.00;13.00;;;;;;;;4975065;28;45795;-89
2021/06/16 08:34:37;;;;;;;;;15.75;12.25;;;;;;;;4968841;28;45605;-89
2021/06/16 08:37:03;;;;;;;;;14.25;14.00;;;;;;;;4967861;28;45279;-89
2021/06/16 08:39:28;;;;;;;;;12.25;12.00;;;;;;;;4970226;28;46364;-87
2021/06/16 08:41:54;;;;;;;;;15.00;13.00;;;;;;;;4970596;28;45413;-88
2021/06/16 08:44:19;;;;;;;;;14.50;12.50;;;;;;;;4967829;28;45410;-89
2021/06/16 08:46:45;;;;;;;;;15.50;14.50;;;;;;;;4967060;28;45509;-87
2021/06/16 08:49:10;;;;;;;;;17.00;15.00;;;;;;;;4966454;28;45697;-89
2021/06/16 08:51:36;;;;;;;;;13.00;11.75;;;;;;;;4959904;28;45433;-90
2021/06/16 08:54:02;;;;;;;;;15.50;13.00;;;;;;;;4970831;28;45562;-91
2021/06/16 08:56:27;;;;;;;;;12.25;10.00;;;;;;;;4969623;28;45724;-91
2021/06/16 08:58:53;;;;;;;;;11.50;11.25;;;;;;;;4970285;28;46242;-90
2021/06/16 09:01:18;;;;;;;;;14.50;11.00;;;;;;;;4968208;28;45973;-89
2021/06/16 09:03:44;;;;;;;;;10.50;8.50;;;;;;;;4967065;28;46162;-87
2021/06/16 09:06:10;;;;;;;;;15.00;12.00;;;;;;;;4964789;28;45565;-88
2021/06/16 09:08:55;;;;;;;;;13.00;10.75;;;;;;;;4967359;28;46175;-89
2021/06/16 09:11:21;;;;;;;;;11.00;11.00;;;;;;;;4967033;28;45518;-87
2021/06/16 09:13:47;;;;;;;;;10.50;10.00;;;;;;;;4969697;28;45836;-87
2021/06/16 09:16:29;;;;;;;;;12.50;11.00;;;;;;;;4964915;28;45474;-87
2021/06/16 09:18:54;;;;;;;;;11.75;11.25;;;;;;;;4966236;28;46568;-87
2021/06/16 09:21:39;;;;;;;;;10.50;10.25;;;;;;;;4968632;28;45505;-88
2021/06/16 09:24:05;;;;;;;;;9.00;9.00;;;;;;;;4968294;28;45652;-89
2021/06/16 09:26:34;;;;;;;;;9.75;8.00;;;;;;;;4965709;28;46291;-89
2021/06/16 09:29:00;;;;;;;;;10.25;10.25;;;;;;;;4975031;28;48322;-88
2021/06/16 09:31:25;;;;;;;;;8.00;8.00;;;;;;;;5008467;23;45959;-88
2021/06/16 09:34:21;;;;;;;;;;;;;;;;;;;;;
2021/06/16 09:48:17;;;;;;;;;10.25;8.25;;;;;;;;5529813;23;46614;-87
2021/06/16 09:50:42;;;;;;;;;9.75;8.50;;;;;;;;5686181;23;45882;-89
2021/06/16 09:53:07;;;;;;;;;9.00;9.00;;;;;;;;4987031;28;45500;-87
2021/06/16 09:58:47;;;;;;;;;;;;;;;;;;;;;
2021/06/16 10:15:15;;;;;;;;;9.50;9.00;;;;;;;;5234736;23;45669;-93
2021/06/16 10:17:40;;;;;;;;;9.25;7.50;;;;;;;;4940012;28;45610;-91
2021/06/16 10:20:07;;;;;;;;;11.00;9.50;;;;;;;;4939057;28;45551;-92
2021/06/16 10:22:32;;;;;;;;;9.75;8.50;;;;;;;;4937575;28;58378;-92
2021/06/16 10:24:58;;;;;;;;;10.00;10.00;;;;;;;;4941576;28;45452;-92
2021/06/16 10:27:25;;;;;;;;;11.25;10.25;;;;;;;;4940458;28;45685;-92
2021/06/16 10:29:50;;;;;;;;;10.75;10.75;;;;;;;;4928727;28;45619;-92
2021/06/16 10:32:16;;;;;;;;;13.50;12.00;;;;;;;;4938162;28;45788;-90
2021/06/16 10:34:50;;;;;;;;;11.50;11.50;;;;;;;;4945359;28;45742;-92
2021/06/16 10:37:33;;;;;;;;;14.75;12.25;;;;;;;;4932305;28;45741;-93
2021/06/16 10:40:16;;;;;;;;;13.00;10.00;;;;;;;;4931250;28;45575;-91
2021/06/16 10:43:03;;;;;;;;;10.00;10.00;;;;;;;;4940615;28;46403;-93
2021/06/16 10:45:36;;;;;;;;;9.25;9.25;;;;;;;;4945483;28;45297;-92
2021/06/16 10:50:56;;;;;;;;;10.00;10.00;;;;;;;;5521250;23;46129;-87
2021/06/16 10:53:24;;;;;;;;;10.50;9.75;;;;;;;;5180628;23;47216;-87
2021/06/16 10:55:56;;;;;;;;;11.25;8.75;;;;;;;;5248742;23;45910;-86
2021/06/16 10:58:25;;;;;;;;;12.00;10.75;;;;;;;;4974354;28;45533;-90
2021/06/16 11:01:11;;;;;;;;;10.50;10.50;;;;;;;;4968059;28;45531;-89
2021/06/16 11:03:59;;;;;;;;;9.25;9.25;;;;;;;;4963464;28;46389;-88
2021/06/16 11:06:36;;;;;;;;;11.75;10.00;;;;;;;;4958517;28;45732;-88
2021/06/16 11:09:14;;;;;;;;;10.75;8.50;;;;;;;;4969289;28;45494;-87
2021/06/16 11:12:00;;;;;;;;;12.75;10.75;;;;;;;;4964432;28;45566;-89
2021/06/16 11:14:35;;;;;;;;;11.25;11.25;;;;;;;;4967952;28;45923;-91
2021/06/16 11:17:00;;;;;;;;;9.50;9.50;;;;;;;;4972982;28;45426;-88
2021/06/16 11:19:27;;;;;;;;;8.25;8.25;;;;;;;;4968034;28;45505;-89
2021/06/16 11:21:53;;;;;;;;;9.75;9.00;;;;;;;;5303911;23;45529;-87
2021/06/16 11:24:18;;;;;;;;;9.00;9.00;;;;;;;;4957458;28;46606;-89
2021/06/16 11:26:44;;;;;;;;;11.50;10.00;;;;;;;;4945577;28;45549;-89
2021/06/16 11:29:09;;;;;;;;;11.25;10.50;;;;;;;;4953841;28;45447;-88
2021/06/16 11:31:53;;;;;;;;;12.50;9.25;;;;;;;;4955422;28;45347;-89
2021/06/16 11:34:47;;;;;;;;;12.25;12.00;;;;;;;;4940905;28;45663;-91
2021/06/16 11:37:32;;;;;;;;;9.25;9.00;;;;;;;;4952785;28;46223;-88
2021/06/16 11:47:50;;;;;;;;;10.25;9.25;;;;;;;;4993241;23;45627;-87
2021/06/16 11:50:15;;;;;;;;;13.50;12.75;;;;;;;;4975660;28;45482;-87
2021/06/16 11:52:54;;;;;;;;;13.50;10.50;;;;;;;;4975350;28;45454;-90
2021/06/16 11:57:54;;;;;;;;;9.00;9.00;;;;;;;;1745059;23;46721;-86
2021/06/16 12:00:20;;;;;;;;;9.00;8.67;;;;;;;;4954637;28;45373;-87
2021/06/16 12:02:46;;;;;;;;;13.50;11.00;;;;;;;;4975490;28;45439;-87
2021/06/16 12:05:13;;;;;;;;;12.50;10.00;;;;;;;;4979649;28;45660;-87
2021/06/16 12:07:45;;;;;;;;;10.50;9.75;;;;;;;;5542192;23;46201;-87
2021/06/16 12:10:21;;;;;;;;;10.00;9.25;;;;;;;;4983263;28;45593;-87
2021/06/16 12:12:46;;;;;;;;;12.25;12.25;;;;;;;;4982982;28;45606;-87
2021/06/16 12:18:05;;;;;;;;;10.50;9.50;;;;;;;;5135327;23;45296;-87
2021/06/16 12:20:40;;;;;;;;;12.75;11.50;;;;;;;;4949525;28;45573;-87
2021/06/16 12:23:24;;;;;;;;;14.75;13.50;;;;;;;;5052474;23;46627;-88
2021/06/16 12:26:02;;;;;;;;;15.25;10.00;;;;;;;;4964787;28;46296;-87
2021/06/16 12:33:41;;;;;;;;;12.75;9.50;;;;;;;;5321161;23;47010;-88
2021/06/16 12:36:19;;;;;;;;;12.25;9.25;;;;;;;;4958678;28;45479;-87
2021/06/16 12:41:24;;;;;;;;;10.00;9.00;;;;;;;;5199104;23;45379;-90
2021/06/16 12:43:50;;;;;;;;;10.00;9.50;;;;;;;;4972281;28;45395;-90
2021/06/16 12:46:15;;;;;;;;;11.00;11.00;;;;;;;;4955225;28;46887;-89
2021/06/16 12:48:41;;;;;;;;;9.25;9.25;;;;;;;;4967436;28;45740;-89
2021/06/16 12:51:06;;;;;;;;;12.00;10.50;;;;;;;;4972210;28;45498;-89
2021/06/16 12:53:38;;;;;;;;;10.75;10.25;;;;;;;;4965507;28;45875;-88
2021/06/16 12:56:05;;;;;;;;;12.00;11.25;;;;;;;;4968849;28;46338;-89
2021/06/16 12:58:30;;;;;;;;;11.75;9.00;;;;;;;;4972095;28;45582;-89
2021/06/16 13:00:57;;;;;;;;;11.75;10.75;;;;;;;;4968805;28;45388;-87
2021/06/16 13:03:24;;;;;;;;;12.75;9.75;;;;;;;;4974424;28;45414;-89
2021/06/16 13:10:56;;;;;;;;;11.50;11.50;;;;;;;;4995943;28;45569;-89
2021/06/16 13:13:21;;;;;;;;;10.00;10.00;;;;;;;;4992335;28;45510;-91
2021/06/16 13:15:51;;;;;;;;;9.00;9.00;;;;;;;;4989074;28;46145;-89
2021/06/16 13:21:19;;;;;;;;;12.00;11.00;;;;;;;;5349124;23;48056;-88
2021/06/16 13:23:54;;;;;;;;;10.00;10.00;;;;;;;;4963228;28;45448;-87
2021/06/16 13:26:20;;;;;;;;;10.00;10.00;;;;;;;;4965898;28;47282;-86
2021/06/16 13:28:55;;;;;;;;;10.00;9.25;;;;;;;;5014478;23;45647;-83
2021/06/16 13:31:22;;;;;;;;;12.00;9.00;;;;;;;;5003542;23;45588;-88
2021/06/16 13:33:48;;;;;;;;;10.25;9.00;;;;;;;;4988298;28;45501;-86
2021/06/16 13:36:15;;;;;;;;;11.00;9.25;;;;;;;;4974602;28;47127;-87
2021/06/16 13:39:00;;;;;;;;;12.25;10.75;;;;;;;;5002006;28;45515;-89
2021/06/16 13:41:51;;;;;;;;;10.00;10.00;;;;;;;;4960308;28;45453;-82
2021/06/16 13:44:17;;;;;;;;;9.50;9.50;;;;;;;;4957544;28;45549;-82
2021/06/16 13:49:22;;;;;;;;;8.25;8.00;;;;;;;;4987985;28;45652;-89
2021/06/16 13:51:47;;;;;;;;;11.67;9.00;;;;;;;;4983888;28;45476;-90
2021/06/16 13:54:12;;;;;;;;;10.00;9.67;;;;;;;;4994467;28;45311;-89
2021/06/16 13:56:38;;;;;;;;;8.00;8.00;;;;;;;;4990886;28;46230;-89
2021/06/16 13:59:03;;;;;;;;;9.50;7.00;;;;;;;;4984088;28;45324;-88
2021/06/16 14:01:28;;;;;;;;;10.33;10.00;;;;;;;;4989433;28;45855;-90
2021/06/16 14:03:54;;;;;;;;;8.00;8.00;;;;;;;;4988742;28;45570;-87
2021/06/16 14:06:19;;;;;;;;;9.00;9.00;;;;;;;;4994650;28;46563;-89
2021/06/16 14:08:44;;;;;;;;;8.25;7.00;;;;;;;;4973656;28;45680;-90
2021/06/16 14:11:09;;;;;;;;;10.00;9.00;;;;;;;;4993488;28;45518;-89
2021/06/16 14:13:34;;;;;;;;;11.00;11.00;;;;;;;;4992240;28;45536;-90
2021/06/16 14:16:02;;;;;;;;;10.00;8.50;;;;;;;;5107897;23;46146;-82
2021/06/16 14:18:28;;;;;;;;;8.00;7.00;;;;;;;;4955133;28;45550;-84
2021/06/16 14:20:55;;;;;;;;;7.00;7.00;;;;;;;;4959122;28;45526;-85
2021/06/16 14:23:21;;;;;;;;;10.00;10.00;;;;;;;;4941547;28;50777;-84
2021/06/16 14:25:55;;;;;;;;;8.50;8.25;;;;;;;;4955764;28;46879;-84
2021/06/16 14:28:24;;;;;;;;;8.50;8.50;;;;;;;;4959707;28;45501;-84
2021/06/16 14:30:51;;;;;;;;;9.75;9.75;;;;;;;;4950165;28;45625;-86
2021/06/16 14:33:16;;;;;;;;;11.75;8.50;;;;;;;;4954187;23;45535;-87
2021/06/16 14:35:43;;;;;;;;;11.33;10.67;;;;;;;;5875770;23;47345;-88
2021/06/16 14:38:08;;;;;;;;;10.00;9.00;;;;;;;;4938343;28;45514;-88
2021/06/16 14:40:33;;;;;;;;;9.00;7.00;;;;;;;;4939045;28;45292;-89
2021/06/16 14:42:58;;;;;;;;;6.50;6.25;;;;;;;;4940332;28;45392;-88
2021/06/16 14:45:24;;;;;;;;;8.00;7.75;;;;;;;;4931678;28;45332;-87
2021/06/16 14:47:49;;;;;;;;;7.50;7.00;;;;;;;;4934937;28;45449;-87
2021/06/16 14:50:14;;;;;;;;;7.00;6.00;;;;;;;;4934720;23;45434;-83
2021/06/16 14:52:40;;;;;;;;;8.50;7.00;;;;;;;;4922082;28;46594;-82
2021/06/16 14:58:26;;;;;;;;;8.00;8.00;;;;;;;;4877961;23;46995;-88
2021/06/16 15:00:53;;;;;;;;;7.00;7.00;;;;;;;;4917799;28;45727;-88
2021/06/16 15:03:19;;;;;;;;;10.25;8.00;;;;;;;;4937775;28;45537;-88
2021/06/16 15:05:44;;;;;;;;;8.00;8.00;;;;;;;;4949246;28;47572;-89
2021/06/16 15:08:09;;;;;;;;;8.00;8.00;;;;;;;;4936518;28;46049;-88
2021/06/16 15:10:34;;;;;;;;;8.00;7.00;;;;;;;;4958101;28;45427;-88
2021/06/16 15:13:00;;;;;;;;;8.50;7.25;;;;;;;;4946732;28;45601;-88
2021/06/16 15:15:25;;;;;;;;;6.00;6.00;;;;;;;;4943985;28;45510;-87
2021/06/16 15:17:51;;;;;;;;;8.00;8.00;;;;;;;;4951338;28;45416;-88
2021/06/16 15:20:17;;;;;;;;;10.00;8.25;;;;;;;;4955079;28;45588;-88
2021/06/16 15:35:06;;;;;;;;;9.25;9.00;;;;;;;;5014894;23;45431;-87
2021/06/16 15:37:32;;;;;;;;;6.00;6.00;;;;;;;;4961451;28;47415;-87
2021/06/16 15:39:59;;;;;;;;;7.75;7.50;;;;;;;;5236460;23;46565;-87
2021/06/16 15:42:42;;;;;;;;;9.00;8.75;;;;;;;;5134551;23;45623;-87